Time;durP1;ratioP1;P1;durP2;ratioP2;P2;SDS_P1;SDS_P2;PMS_P1;PMS_P2;Temp;Humidity;BMP_temperature;BMP_pressure;BME280_temperature;BME280_humidity;BME280_pressure;Samples;Min_cycle;Max_cycle;Signal;HPM_P1;HPM_P2
2023/05/16 00:00:11;;;;;;;;;;;;;;;22.06;52.86;100213.31;2351493;75;52362;-73
2023/05/16 00:03:14;;;;;;;;;;;;;;;22.07;52.82;100206.91;2329141;75;50953;-74
2023/05/16 00:06:15;;;;;;;;;;;;;;;22.01;53.15;100212.61;2358878;75;50753;-74
2023/05/16 00:09:17;;;;;;;;;;;;;;;22.01;53.16;100221.22;2355516;74;51528;-74
2023/05/16 00:12:21;;;;;;;;;;;;;;;22.06;53.02;100223.56;2358473;74;50313;-74
2023/05/16 00:15:23;;;;;;;;;;;;;;;22.04;52.96;100224.83;2357763;74;21918;-75
2023/05/16 00:18:25;;;;;;;;;;;;;;;22.03;52.95;100236.13;2357841;75;50840;-76
2023/05/16 00:21:27;;;;;;;;;;;;;;;22.03;52.91;100238.83;2362188;74;50711;-75
2023/05/16 00:24:29;;;;;;;;;;;;;;;22.03;52.96;100229.92;2333772;75;51072;-75
2023/05/16 00:27:30;;;;;;;;;;;;;;;22.04;52.86;100231.56;2389378;73;51704;-75
2023/05/16 00:30:32;;;;;;;;;;;;;;;22.05;52.86;100227.84;2355528;75;50742;-76
2023/05/16 00:33:34;;;;;;;;;;;;;;;22.06;52.79;100226.79;2357270;75;51606;-75
2023/05/16 00:36:35;;;;;;;;;;;;;;;22.05;52.84;100230.53;2355665;75;51459;-75
2023/05/16 00:39:37;;;;;;;;;;;;;;;22.06;52.84;100234.88;2329669;75;51680;-74
2023/05/16 00:42:39;;;;;;;;;;;;;;;22.04;52.86;100237.80;2353450;75;51327;-75
2023/05/16 00:45:40;;;;;;;;;;;;;;;22.04;52.87;100237.80;2353631;75;50415;-75
2023/05/16 00:48:42;;;;;;;;;;;;;;;22.04;52.97;100242.34;2355215;75;50637;-74
2023/05/16 00:51:43;;;;;;;;;;;;;;;22.01;53.16;100244.13;2387307;73;49621;-74
2023/05/16 00:54:45;;;;;;;;;;;;;;;21.98;53.19;100244.03;2356106;75;50714;-74
2023/05/16 00:57:46;;;;;;;;;;;;;;;21.97;53.30;100247.78;2365380;75;51429;-75
2023/05/16 01:00:48;;;;;;;;;;;;;;;21.95;53.33;100245.28;2365679;74;50782;-75
2023/05/16 01:03:50;;;;;;;;;;;;;;;21.96;53.35;100252.34;2385181;73;52374;-74
2023/05/16 01:06:51;;;;;;;;;;;;;;;21.96;53.40;100252.34;2354432;75;51509;-75
2023/05/16 01:09:53;;;;;;;;;;;;;;;21.94;53.45;100252.26;2354613;75;50235;-75
2023/05/16 01:12:56;;;;;;;;;;;;;;;21.94;53.43;100257.64;2354643;75;50354;-75
2023/05/16 01:16:02;;;;;;;;;;;;;;;21.94;53.41;100258.47;2328111;75;52380;-74
2023/05/16 01:19:06;;;;;;;;;;;;;;;21.97;53.32;100258.55;2354335;75;50437;-74
2023/05/16 01:22:14;;;;;;;;;;;;;;;22.02;53.17;100253.87;2357522;74;51545;-74
2023/05/16 01:25:32;;;;;;;;;;;;;;;22.02;53.16;100267.34;2351403;75;22688;-73
2023/05/16 01:28:33;;;;;;;;;;;;;;;22.02;53.17;100275.42;2377610;73;52295;-75
2023/05/16 01:31:35;;;;;;;;;;;;;;;22.00;53.28;100278.85;2349808;75;50713;-74
2023/05/16 01:34:36;;;;;;;;;;;;;;;21.95;53.44;100281.66;2350424;75;51557;-74
2023/05/16 01:37:45;;;;;;;;;;;;;;;22.00;53.22;100285.59;2354496;75;51526;-74
2023/05/16 01:41:01;;;;;;;;;;;;;;;22.01;53.19;100284.53;2327702;75;52405;-74
2023/05/16 01:44:04;;;;;;;;;;;;;;;22.01;53.22;100296.12;2350010;74;50244;-75
2023/05/16 01:47:07;;;;;;;;;;;;;;;22.01;53.21;100297.48;2350001;74;51488;-74
2023/05/16 01:50:16;;;;;;;;;;;;;;;22.01;53.23;100304.21;2350230;75;50494;-74
2023/05/16 01:53:28;;;;;;;;;;;;;;;22.01;53.25;100306.09;2341319;74;51224;-73
2023/05/16 01:56:30;;;;;;;;;;;;;;;22.01;53.23;100314.98;2362370;75;51585;-74
2023/05/16 01:59:32;;;;;;;;;;;;;;;22.01;53.28;100314.98;2365220;74;51423;-74
2023/05/16 02:02:33;;;;;;;;;;;;;;;22.00;53.25;100322.78;2365589;75;51437;-74
2023/05/16 02:05:35;;;;;;;;;;;;;;;22.00;53.24;100334.08;2333155;75;52371;-74
2023/05/16 02:08:37;;;;;;;;;;;;;;;22.00;53.25;100341.64;2365114;75;50418;-74
2023/05/16 02:11:38;;;;;;;;;;;;;;;22.01;53.21;100334.38;2365175;74;50262;-75
2023/05/16 02:14:40;;;;;;;;;;;;;;;22.00;53.19;100344.86;2365530;74;50386;-73
2023/05/16 02:17:41;;;;;;;;;;;;;;;22.00;53.20;100346.20;2329490;75;50086;-74
2023/05/16 02:20:43;;;;;;;;;;;;;;;22.00;53.19;100351.06;2354862;75;51501;-74
2023/05/16 02:23:44;;;;;;;;;;;;;;;22.00;53.21;100362.37;2355884;74;50696;-74
2023/05/16 02:26:46;;;;;;;;;;;;;;;21.99;53.21;100356.16;2350161;75;51504;-74
2023/05/16 02:29:48;;;;;;;;;;;;;;;22.01;53.21;100376.13;2326593;75;52437;-74
2023/05/16 02:32:49;;;;;;;;;;;;;;;21.99;53.21;100371.47;2350404;75;50232;-75
2023/05/16 02:35:52;;;;;;;;;;;;;;;22.00;53.21;100377.19;2351155;75;51620;-74
2023/05/16 02:38:54;;;;;;;;;;;;;;;21.99;53.18;100375.02;2350326;75;50244;-75
2023/05/16 02:41:56;;;;;;;;;;;;;;;21.99;53.19;100375.02;2327827;75;51299;-74
2023/05/16 02:44:57;;;;;;;;;;;;;;;22.00;53.18;100382.58;2354740;75;50295;-73
2023/05/16 02:47:59;;;;;;;;;;;;;;;21.98;53.24;100383.30;2349928;75;50751;-74
2023/05/16 02:51:01;;;;;;;;;;;;;;;21.98;53.23;100389.51;2354596;75;50140;-74
2023/05/16 02:54:02;;;;;;;;;;;;;;;21.98;53.28;100385.99;2331672;75;51181;-75
2023/05/16 02:57:04;;;;;;;;;;;;;;;21.96;53.31;100403.21;2356464;75;50269;-74
2023/05/16 03:00:06;;;;;;;;;;;;;;;21.95;53.32;100394.80;2354747;75;51539;-74
2023/05/16 03:03:08;;;;;;;;;;;;;;;21.95;53.34;100395.33;2354752;75;50289;-74
2023/05/16 03:06:09;;;;;;;;;;;;;;;21.96;53.31;100411.29;2327951;75;51236;-74
2023/05/16 03:09:11;;;;;;;;;;;;;;;21.96;53.28;100405.91;2356254;75;51567;-74
2023/05/16 03:12:12;;;;;;;;;;;;;;;21.95;53.29;100408.27;2356398;75;51891;-73
2023/05/16 03:15:14;;;;;;;;;;;;;;;21.95;53.30;100406.92;2356428;75;51278;-74
2023/05/16 03:18:16;;;;;;;;;;;;;;;21.96;53.25;100418.03;2384487;74;50123;-74
2023/05/16 03:21:17;;;;;;;;;;;;;;;21.97;53.31;100418.84;2354647;75;51543;-74
2023/05/16 03:24:21;;;;;;;;;;;;;;;21.97;53.28;100420.20;2356466;74;53361;-74
2023/05/16 03:27:22;;;;;;;;;;;;;;;21.95;53.30;100427.13;2354492;74;23353;-76
2023/05/16 03:30:24;;;;;;;;;;;;;;;21.96;53.31;100440.07;2360233;75;50232;-75
2023/05/16 03:33:26;;;;;;;;;;;;;;;21.95;53.36;100428.48;2361932;75;51687;-75
2023/05/16 03:36:28;;;;;;;;;;;;;;;21.94;53.38;100436.27;2357738;75;50643;-76
2023/05/16 03:39:29;;;;;;;;;;;;;;;21.94;53.39;100433.56;2357764;75;51466;-75
2023/05/16 03:42:31;;;;;;;;;;;;;;;21.94;53.33;100432.22;2357818;75;51404;-76
2023/05/16 03:45:32;;;;;;;;;;;;;;;21.95;53.32;100441.13;2357719;75;51392;-75
2023/05/16 03:48:34;;;;;;;;;;;;;;;21.94;53.31;100427.36;2353907;75;51483;-76
2023/05/16 03:51:36;;;;;;;;;;;;;;;21.94;53.34;100444.34;2356512;75;50280;-76
2023/05/16 03:54:37;;;;;;;;;;;;;;;21.94;53.34;100440.30;2330062;75;51048;-76
2023/05/16 03:57:39;;;;;;;;;;;;;;;21.95;53.31;100447.33;2356213;75;50253;-75
2023/05/16 04:00:40;;;;;;;;;;;;;;;21.94;53.33;100448.38;2356650;75;50441;-76
2023/05/16 04:03:42;;;;;;;;;;;;;;;21.93;53.37;100451.27;2356588;75;51522;-76
2023/05/16 04:06:44;;;;;;;;;;;;;;;21.93;53.40;100465.56;2356519;75;50228;-76
2023/05/16 04:09:45;;;;;;;;;;;;;;;21.93;53.40;100460.17;2356495;75;51458;-76
2023/05/16 04:12:47;;;;;;;;;;;;;;;21.92;53.42;100461.23;2356488;75;51434;-76
2023/05/16 04:15:48;;;;;;;;;;;;;;;21.93;53.42;100470.13;2354823;75;50461;-74
2023/05/16 04:18:50;;;;;;;;;;;;;;;21.92;53.36;100475.22;2328406;74;51250;-75
2023/05/16 04:21:52;;;;;;;;;;;;;;;21.91;53.46;100484.32;2359597;75;51537;-74
2023/05/16 04:24:54;;;;;;;;;;;;;;;21.90;53.55;100490.23;2365397;75;51595;-75
2023/05/16 04:27:56;;;;;;;;;;;;;;;21.89;53.62;100493.98;2348521;74;50621;-75
2023/05/16 04:30:58;;;;;;;;;;;;;;;21.88;53.59;100497.69;2332988;75;51249;-75
2023/05/16 04:34:00;;;;;;;;;;;;;;;21.86;53.73;100497.59;2362438;74;50204;-74
2023/05/16 04:37:03;;;;;;;;;;;;;;;21.86;53.66;100498.94;2357725;75;51464;-75
2023/05/16 04:40:06;;;;;;;;;;;;;;;21.83;53.75;100501.53;2362155;75;50359;-75
2023/05/16 04:43:08;;;;;;;;;;;;;;;21.88;53.51;100503.08;2336015;75;51713;-75
2023/05/16 04:46:09;;;;;;;;;;;;;;;21.91;53.38;100509.42;2358365;75;50704;-75
2023/05/16 04:49:11;;;;;;;;;;;;;;;21.89;53.37;100511.48;2362388;75;50868;-74
2023/05/16 04:52:12;;;;;;;;;;;;;;;21.91;53.33;100517.50;2358527;75;50759;-74
2023/05/16 04:55:15;;;;;;;;;;;;;;;21.91;53.30;100526.93;2335420;75;52315;-74
2023/05/16 04:58:16;;;;;;;;;;;;;;;21.91;53.24;100524.23;2348048;75;51488;-74
2023/05/16 05:01:18;;;;;;;;;;;;;;;21.92;53.21;100524.53;2351045;75;50285;-73
2023/05/16 05:04:20;;;;;;;;;;;;;;;21.92;53.22;100543.91;2355431;75;50245;-75
2023/05/16 05:07:21;;;;;;;;;;;;;;;21.90;53.15;100551.38;2323563;75;52600;-76
2023/05/16 05:10:23;;;;;;;;;;;;;;;21.91;53.06;100543.09;2357114;74;50651;-75
2023/05/16 05:13:25;;;;;;;;;;;;;;;21.89;51.21;100542.99;2352182;75;50612;-74
2023/05/16 05:16:26;;;;;;;;;;;;;;;21.83;50.95;100554.58;2355108;75;50090;-77
2023/05/16 05:19:28;;;;;;;;;;;;;;;21.82;51.66;100567.22;2377922;74;51078;-74
2023/05/16 05:22:29;;;;;;;;;;;;;;;21.79;51.80;100574.38;2355107;75;50509;-76
2023/05/16 05:25:32;;;;;;;;;;;;;;;21.77;51.89;100581.82;2350494;75;50663;-75
2023/05/16 05:28:34;;;;;;;;;;;;;;;21.77;51.84;100584.52;2349178;75;50029;-75
2023/05/16 05:31:35;;;;;;;;;;;;;;;21.79;51.76;100585.14;2329023;75;52354;-76
2023/05/16 05:34:37;;;;;;;;;;;;;;;21.80;51.90;100591.36;2355770;74;51387;-75
2023/05/16 05:37:39;;;;;;;;;;;;;;;21.79;51.87;100597.27;2354980;75;50258;-75
2023/05/16 05:40:40;;;;;;;;;;;;;;;21.76;51.88;100604.42;2355457;74;51464;-76
2023/05/16 05:43:42;;;;;;;;;;;;;;;21.76;51.97;100609.80;2328802;75;52500;-75
2023/05/16 05:46:43;;;;;;;;;;;;;;;21.75;51.90;100611.64;2355293;75;51481;-75
2023/05/16 05:49:45;;;;;;;;;;;;;;;21.75;52.08;100613.52;2350538;74;51404;-79
2023/05/16 05:52:47;;;;;;;;;;;;;;;21.76;52.10;100612.50;2356247;75;50778;-75
2023/05/16 05:55:48;;;;;;;;;;;;;;;21.75;52.06;100618.38;2379368;74;51093;-75
2023/05/16 05:58:50;;;;;;;;;;;;;;;21.75;52.14;100629.67;2353566;75;51422;-75
2023/05/16 06:01:52;;;;;;;;;;;;;;;21.75;52.08;100621.06;2351353;75;51591;-75
2023/05/16 06:04:54;;;;;;;;;;;;;;;21.77;52.18;100625.44;2350358;75;50511;-75
2023/05/16 06:07:55;;;;;;;;;;;;;;;21.77;52.17;100622.22;2326305;75;51125;-76
2023/05/16 06:10:57;;;;;;;;;;;;;;;21.77;52.18;100611.45;2350593;75;50641;-75
2023/05/16 06:13:58;;;;;;;;;;;;;;;21.78;52.14;100619.83;2355350;75;51437;-74
2023/05/16 06:17:00;;;;;;;;;;;;;;;21.77;52.23;100612.80;2350092;75;50433;-77
2023/05/16 06:20:01;;;;;;;;;;;;;;;21.78;52.23;100623.87;2339969;74;51648;-76
2023/05/16 06:23:03;;;;;;;;;;;;;;;21.78;52.25;100619.00;2362976;75;51413;-75
2023/05/16 06:26:07;;;;;;;;;;;;;;;21.78;52.24;100619.83;2365830;75;51494;-76
2023/05/16 06:29:09;;;;;;;;;;;;;;;21.78;52.27;100620.35;2365666;74;50019;-75
2023/05/16 06:32:11;;;;;;;;;;;;;;;21.79;52.23;100626.89;2330092;75;52463;-75
2023/05/16 06:35:12;;;;;;;;;;;;;;;21.79;52.14;100627.42;2356896;75;50071;-75
2023/05/16 06:38:18;;;;;;;;;;;;;;;21.79;52.24;100630.11;2354604;75;50267;-76
2023/05/16 06:41:20;;;;;;;;;;;;;;;21.78;52.25;100635.98;2354938;75;50162;-74
2023/05/16 06:44:22;;;;;;;;;;;;;;;21.77;52.25;100648.33;2328479;75;52502;-75
2023/05/16 06:47:24;;;;;;;;;;;;;;;21.78;52.24;100660.75;2356480;75;50676;-74
2023/05/16 06:50:25;;;;;;;;;;;;;;;21.79;52.23;100658.39;2358618;74;49931;-75
2023/05/16 06:53:27;;;;;;;;;;;;;;;21.78;52.22;100666.96;2355391;75;50736;-75
2023/05/16 06:56:30;;;;;;;;;;;;;;;21.78;52.22;100659.41;2350350;75;50353;-75
2023/05/16 06:59:31;;;;;;;;;;;;;;;21.78;52.20;100666.96;2355039;75;51568;-74
2023/05/16 07:02:33;;;;;;;;;;;;;;;21.78;52.20;100669.66;2350772;75;51579;-76
2023/05/16 07:05:35;;;;;;;;;;;;;;;21.76;52.20;100678.48;2350720;75;51494;-75
2023/05/16 07:08:36;;;;;;;;;;;;;;;21.77;52.19;100692.77;2350325;75;51402;-76
2023/05/16 07:11:38;;;;;;;;;;;;;;;21.76;52.17;100681.17;2377841;74;51045;-76
2023/05/16 07:14:40;;;;;;;;;;;;;;;21.77;52.18;100678.78;2350651;75;52545;-76
2023/05/16 07:17:42;;;;;;;;;;;;;;;21.76;52.14;100677.13;2354486;74;50691;-76
2023/05/16 07:20:44;;;;;;;;;;;;;;;21.75;52.13;100688.40;2358895;75;50671;-76
2023/05/16 07:23:46;;;;;;;;;;;;;;;21.76;52.14;100697.34;2317724;75;49666;-75
2023/05/16 07:26:47;;;;;;;;;;;;;;;21.75;52.14;100697.00;2355420;75;50404;-76
2023/05/16 07:29:49;;;;;;;;;;;;;;;21.76;52.11;100698.68;2351027;75;50764;-76
2023/05/16 07:32:51;;;;;;;;;;;;;;;21.76;52.09;100691.95;2356037;75;49967;-75
2023/05/16 07:35:53;;;;;;;;;;;;;;;21.77;52.05;100708.41;2329076;75;51169;-75
2023/05/16 07:38:54;;;;;;;;;;;;;;;21.78;52.04;100696.59;2354307;74;50380;-76
2023/05/16 07:41:56;;;;;;;;;;;;;;;21.79;52.03;100693.41;2351524;75;50229;-75
2023/05/16 07:44:57;;;;;;;;;;;;;;;21.78;52.02;100700.63;2355452;75;50131;-75
2023/05/16 07:47:59;;;;;;;;;;;;;;;21.78;52.00;100702.50;2351027;75;50631;-75
2023/05/16 07:51:00;;;;;;;;;;;;;;;21.77;52.02;100711.63;2360062;75;51607;-75
2023/05/16 07:54:02;;;;;;;;;;;;;;;21.77;52.01;100710.28;2359141;75;50715;-75
2023/05/16 07:57:04;;;;;;;;;;;;;;;21.77;52.01;100720.53;2356231;75;51442;-75
2023/05/16 08:00:06;;;;;;;;;;;;;;;21.75;52.00;100723.94;2310750;75;52620;-76
2023/05/16 08:03:07;;;;;;;;;;;;;;;21.77;52.00;100729.95;2357727;75;50411;-76
2023/05/16 08:06:09;;;;;;;;;;;;;;;21.75;51.98;100722.06;2358427;75;50280;-76
2023/05/16 08:09:11;;;;;;;;;;;;;;;21.75;51.98;100721.24;2356259;75;51415;-75
2023/05/16 08:12:12;;;;;;;;;;;;;;;21.76;51.97;100740.43;2353805;75;49978;-76
2023/05/16 08:15:14;;;;;;;;;;;;;;;21.73;51.94;100736.28;2354302;75;50261;-76
2023/05/16 08:18:16;;;;;;;;;;;;;;;21.74;51.94;100753.26;2355815;75;50804;-75
2023/05/16 08:21:17;;;;;;;;;;;;;;;21.74;51.94;100757.30;2359369;75;50245;-76
2023/05/16 08:24:19;;;;;;;;;;;;;;;21.73;51.95;100767.25;2329006;75;50848;-75
2023/05/16 08:27:21;;;;;;;;;;;;;;;21.73;51.96;100761.00;2356287;74;51502;-76
2023/05/16 08:30:22;;;;;;;;;;;;;;;21.74;51.92;100768.07;2355667;75;50072;-76
2023/05/16 08:33:24;;;;;;;;;;;;;;;21.72;51.93;100766.09;2355966;74;50240;-76
2023/05/16 08:36:25;;;;;;;;;;;;;;;21.71;51.92;100774.69;2311076;75;51350;-76
2023/05/16 08:39:29;;;;;;;;;;;;;;;21.71;51.87;100769.30;2353709;75;51503;-76
2023/05/16 08:42:31;;;;;;;;;;;;;;;21.73;51.88;100769.09;2355541;75;50304;-76
2023/05/16 08:45:32;;;;;;;;;;;;;;;21.73;51.85;100775.81;2353261;75;50620;-76
2023/05/16 08:48:34;;;;;;;;;;;;;;;21.72;51.83;100780.91;2379161;74;52498;-76
2023/05/16 08:51:35;;;;;;;;;;;;;;;21.71;51.87;100777.91;2356584;75;50399;-76
2023/05/16 08:54:37;;;;;;;;;;;;;;;21.70;51.82;100768.14;2356460;74;50706;-76
2023/05/16 08:57:39;;;;;;;;;;;;;;;21.70;51.84;100763.59;2350144;75;50429;-76
2023/05/16 09:00:40;;;;;;;;;;;;;;;21.69;51.81;100766.50;2326867;75;51275;-77
2023/05/16 09:03:42;;;;;;;;;;;;;;;21.71;51.80;100767.13;2350108;75;50331;-75
2023/05/16 09:06:43;;;;;;;;;;;;;;;21.69;51.79;100761.94;2350057;74;50409;-76
2023/05/16 09:09:45;;;;;;;;;;;;;;;21.69;51.77;100765.98;2354947;75;50588;-76
2023/05/16 09:12:47;;;;;;;;;;;;;;;21.70;51.77;100762.76;2326883;75;52529;-76
2023/05/16 09:15:50;;;;;;;;;;;;;;;21.69;51.76;100772.70;2354665;75;50666;-76
2023/05/16 09:18:56;;;;;;;;;;;;;;;21.70;51.76;100777.57;2350744;75;50704;-76
2023/05/16 09:21:58;;;;;;;;;;;;;;;21.70;51.74;100787.83;2352372;75;50269;-76
2023/05/16 09:25:00;;;;;;;;;;;;;;;21.69;51.71;100785.34;2327403;75;51685;-77
2023/05/16 09:28:01;;;;;;;;;;;;;;;21.69;51.71;100779.96;2353588;75;50348;-75
2023/05/16 09:31:03;;;;;;;;;;;;;;;21.70;51.72;100784.30;2355534;75;50096;-75
2023/05/16 09:34:08;;;;;;;;;;;;;;;21.68;51.71;100780.97;2355687;75;51569;-75
2023/05/16 09:37:10;;;;;;;;;;;;;;;21.68;51.72;100785.02;2309700;75;52414;-75
2023/05/16 09:40:12;;;;;;;;;;;;;;;21.67;51.70;100799.52;2353600;75;50402;-75
2023/05/16 09:43:15;;;;;;;;;;;;;;;21.67;51.70;100803.56;2353722;75;50261;-75
2023/05/16 09:46:18;;;;;;;;;;;;;;;21.67;51.69;100792.79;2355510;75;50264;-75
2023/05/16 09:49:20;;;;;;;;;;;;;;;21.68;51.63;100802.52;2385871;74;52437;-76
2023/05/16 09:52:21;;;;;;;;;;;;;;;21.67;51.63;100805.73;2355799;75;51301;-76
2023/05/16 09:55:23;;;;;;;;;;;;;;;21.67;51.63;100814.33;2358516;75;50647;-76
2023/05/16 09:58:26;;;;;;;;;;;;;;;21.67;51.62;100810.30;2360072;74;50632;-75
2023/05/16 10:01:28;;;;;;;;;;;;;;;21.68;51.60;100811.94;2328060;75;52532;-75
2023/05/16 10:04:29;;;;;;;;;;;;;;;21.67;51.59;100812.98;2384640;74;52496;-75
2023/05/16 10:07:34;;;;;;;;;;;;;;;21.66;51.56;100805.43;2356163;75;50383;-75
2023/05/16 10:10:36;;;;;;;;;;;;;;;21.68;51.54;100817.33;2354493;75;50755;-75
2023/05/16 10:13:37;;;;;;;;;;;;;;;21.66;51.56;100814.03;2384934;74;52643;-75
2023/05/16 10:16:40;;;;;;;;;;;;;;;21.66;51.55;100809.99;2354473;75;50353;-75
2023/05/16 10:19:42;;;;;;;;;;;;;;;21.64;51.55;100815.56;2354576;75;51465;-76
2023/05/16 10:22:44;;;;;;;;;;;;;;;21.66;51.54;100821.59;2353997;75;51400;-76
2023/05/16 10:25:46;;;;;;;;;;;;;;;21.65;51.51;100818.56;2387711;73;51715;-76
2023/05/16 10:28:48;;;;;;;;;;;;;;;21.65;51.54;100809.66;2361804;75;50444;-76
2023/05/16 10:31:49;;;;;;;;;;;;;;;21.64;51.52;100814.73;2357291;75;51564;-76
2023/05/16 10:34:51;;;;;;;;;;;;;;;21.62;51.52;100812.75;2357874;75;50246;-76
2023/05/16 10:37:52;;;;;;;;;;;;;;;21.64;51.51;100812.05;2334902;75;52350;-76
2023/05/16 10:40:54;;;;;;;;;;;;;;;21.63;51.50;100815.27;2357979;75;51450;-76
2023/05/16 10:43:56;;;;;;;;;;;;;;;21.64;51.44;100826.34;2357774;75;51393;-75
2023/05/16 10:46:59;;;;;;;;;;;;;;;21.65;51.41;100836.58;2361901;75;50436;-75
2023/05/16 10:50:00;;;;;;;;;;;;;;;21.64;51.45;100830.89;2387926;74;51697;-75
2023/05/16 10:53:21;;;;;;;;;;;;;;;21.64;51.39;100828.20;2357416;75;51438;-75
2023/05/16 10:56:24;;;;;;;;;;;;;;;21.62;51.38;100828.91;2353107;75;49968;-76
2023/05/16 10:59:27;;;;;;;;;;;;;;;21.61;51.46;100825.39;2350490;75;51589;-76
2023/05/16 11:02:32;;;;;;;;;;;;;;;21.61;51.42;100829.44;2350452;74;51497;-76
2023/05/16 11:05:33;;;;;;;;;;;;;;;21.61;51.43;100831.30;2350673;75;22449;-75
2023/05/16 11:08:35;;;;;;;;;;;;;;;21.60;51.41;100842.56;2354184;75;51542;-75
2023/05/16 11:11:48;;;;;;;;;;;;;;;21.59;51.44;100852.20;2350353;75;50643;-75
2023/05/16 11:14:50;;;;;;;;;;;;;;;21.61;51.39;100856.36;2349287;75;22416;-76
2023/05/16 11:17:53;;;;;;;;;;;;;;;21.60;51.43;100863.28;2350063;75;51564;-75
2023/05/16 11:20:55;;;;;;;;;;;;;;;21.60;51.37;100864.10;2345578;75;51376;-75
2023/05/16 11:24:15;;;;;;;;;;;;;;;21.62;51.34;100867.95;2357888;74;51539;-75
2023/05/16 11:27:21;;;;;;;;;;;;;;;21.63;51.30;100866.91;2352881;75;49716;-75
2023/05/16 11:30:23;;;;;;;;;;;;;;;21.63;51.29;100857.48;2329580;74;50274;-75
2023/05/16 11:33:24;;;;;;;;;;;;;;;21.61;51.28;100855.53;2326689;75;50717;-76
2023/05/16 11:36:27;;;;;;;;;;;;;;;21.60;51.31;100853.85;2353255;75;50271;-75
2023/05/16 11:39:29;;;;;;;;;;;;;;;21.61;51.34;100867.66;2325515;76;52454;-75
2023/05/16 11:42:32;;;;;;;;;;;;;;;21.59;51.33;100864.32;2353559;75;49999;-76
2023/05/16 11:45:34;;;;;;;;;;;;;;;21.59;51.27;100861.11;2352892;74;51490;-76
2023/05/16 11:48:36;;;;;;;;;;;;;;;21.60;51.29;100867.31;2326367;75;51506;-76
2023/05/16 11:51:42;;;;;;;;;;;;;;;21.59;51.26;100862.45;2330902;75;52559;-76
2023/05/16 11:54:43;;;;;;;;;;;;;;;21.60;51.20;100857.89;2357535;75;50646;-76
2023/05/16 11:57:45;;;;;;;;;;;;;;;21.59;51.16;100871.05;2350178;75;50676;-76
2023/05/16 12:00:47;;;;;;;;;;;;;;;21.60;51.18;100870.84;2354188;75;50350;-76
2023/05/16 12:03:50;;;;;;;;;;;;;;;21.62;51.04;100862.05;2377436;74;52616;-75
2023/05/16 12:06:56;;;;;;;;;;;;;;;21.64;50.98;100865.91;2348030;75;50246;-76
2023/05/16 12:09:58;;;;;;;;;;;;;;;21.63;50.98;100865.08;2350266;75;50248;-76
2023/05/16 12:12:59;;;;;;;;;;;;;;;21.63;50.97;100869.12;2350428;75;50718;-76
2023/05/16 12:16:01;;;;;;;;;;;;;;;21.63;51.00;100860.18;2377156;74;52211;-76
2023/05/16 12:19:03;;;;;;;;;;;;;;;21.64;50.96;100865.91;2350025;75;51301;-76
2023/05/16 12:22:05;;;;;;;;;;;;;;;21.62;51.01;100878.20;2353126;75;50286;-76
2023/05/16 12:25:25;;;;;;;;;;;;;;;21.63;50.93;100879.03;2351791;75;50590;-76
2023/05/16 12:28:38;;;;;;;;;;;;;;;21.61;50.95;100872.52;2345958;75;51311;-75
2023/05/16 12:31:39;;;;;;;;;;;;;;;21.60;50.86;100880.78;2356977;75;22319;-75
2023/05/16 12:34:41;;;;;;;;;;;;;;;21.61;50.83;100881.12;2354346;75;50065;-76
2023/05/16 12:37:43;;;;;;;;;;;;;;;21.60;50.84;100884.81;2356009;75;50291;-75
2023/05/16 12:40:44;;;;;;;;;;;;;;;21.59;50.79;100890.72;2329339;75;52451;-76
2023/05/16 12:43:46;;;;;;;;;;;;;;;21.60;50.77;100887.52;2356382;75;50067;-76
2023/05/16 12:46:50;;;;;;;;;;;;;;;21.58;50.80;100889.08;2353997;75;50357;-76
2023/05/16 12:49:53;;;;;;;;;;;;;;;21.58;50.79;100894.46;2354127;75;51517;-76
2023/05/16 12:52:56;;;;;;;;;;;;;;;21.59;50.80;100890.72;2356185;75;50752;-75
2023/05/16 12:55:58;;;;;;;;;;;;;;;21.59;50.78;100884.52;2354245;75;50671;-76
2023/05/16 12:58:59;;;;;;;;;;;;;;;21.59;50.67;100885.86;2294357;74;51285;-76
2023/05/16 13:02:01;;;;;;;;;;;;;;;21.58;50.65;100880.14;2356355;75;53339;-76
2023/05/16 13:05:02;;;;;;;;;;;;;;;21.61;50.65;100877.08;2379446;74;52372;-76
2023/05/16 13:08:04;;;;;;;;;;;;;;;21.63;50.54;100873.64;2356013;74;51436;-76
2023/05/16 13:11:06;;;;;;;;;;;;;;;21.65;50.55;100874.28;2354203;75;51535;-76
2023/05/16 13:14:08;;;;;;;;;;;;;;;21.65;50.54;100871.59;2354198;75;51485;-76
2023/05/16 13:17:10;;;;;;;;;;;;;;;21.65;50.64;100863.52;2356075;74;51375;-76
2023/05/16 13:20:13;;;;;;;;;;;;;;;21.67;50.63;100866.84;2354265;75;50680;-76
2023/05/16 13:23:15;;;;;;;;;;;;;;;21.64;50.73;100865.91;2354239;75;51526;-75
2023/05/16 13:26:16;;;;;;;;;;;;;;;21.66;50.73;100862.50;2345654;75;53169;-75
2023/05/16 13:29:18;;;;;;;;;;;;;;;21.65;50.73;100855.44;2256330;77;52353;-75
2023/05/16 13:32:20;;;;;;;;;;;;;;;21.65;50.79;100852.74;2312059;75;50291;-75
2023/05/16 13:35:21;;;;;;;;;;;;;;;21.66;50.73;100849.86;2353043;75;50447;-75
2023/05/16 13:38:23;;;;;;;;;;;;;;;21.64;50.79;100856.48;2352739;75;50512;-76
2023/05/16 13:41:25;;;;;;;;;;;;;;;21.67;50.80;100868.20;2378544;73;52535;-75
2023/05/16 13:44:26;;;;;;;;;;;;;;;21.66;50.77;100869.23;2351078;74;50231;-75
2023/05/16 13:47:28;;;;;;;;;;;;;;;21.66;50.69;100870.58;2350873;74;50253;-75
2023/05/16 13:50:30;;;;;;;;;;;;;;;21.69;50.70;100875.57;2353015;74;50623;-75
2023/05/16 13:53:31;;;;;;;;;;;;;;;21.68;50.80;100884.66;2378196;74;52488;-75
2023/05/16 13:56:33;;;;;;;;;;;;;;;21.65;50.68;100874.28;2339840;75;51545;-75
2023/05/16 13:59:34;;;;;;;;;;;;;;;21.63;50.66;100871.81;2322154;75;51533;-76
2023/05/16 14:02:36;;;;;;;;;;;;;;;21.63;50.77;100874.50;2309290;76;51435;-75
2023/05/16 14:05:38;;;;;;;;;;;;;;;21.64;50.75;100871.29;2285122;77;51199;-76
2023/05/16 14:08:39;;;;;;;;;;;;;;;21.63;50.78;100869.61;2310758;77;51495;-75
2023/05/16 14:11:41;;;;;;;;;;;;;;;21.67;50.74;100866.84;2309434;77;51675;-76
2023/05/16 14:14:43;;;;;;;;;;;;;;;21.67;50.64;100885.18;2309438;77;51533;-76
2023/05/16 14:17:44;;;;;;;;;;;;;;;21.64;50.71;100878.84;2284945;77;52460;-76
2023/05/16 14:20:46;;;;;;;;;;;;;;;21.65;50.69;100878.33;2311191;76;50402;-76
2023/05/16 14:23:48;;;;;;;;;;;;;;;21.62;50.75;100884.94;2311098;77;50208;-75
2023/05/16 14:26:53;;;;;;;;;;;;;;;21.61;50.82;100881.94;2311166;75;50277;-76
2023/05/16 14:29:52;;;;;;;;;;;;;;;21.60;50.76;100884.81;2328849;74;22937;-76
2023/05/16 14:32:55;;;;;;;;;;;;;;;21.60;50.78;100879.44;2353021;74;51496;-76
2023/05/16 14:35:56;;;;;;;;;;;;;;;21.61;50.76;100880.59;2351243;74;51572;-76
2023/05/16 14:38:58;;;;;;;;;;;;;;;21.65;50.74;100889.09;2351204;75;51458;-76
2023/05/16 14:41:59;;;;;;;;;;;;;;;21.63;50.80;100893.36;2378891;74;52422;-76
2023/05/16 14:45:01;;;;;;;;;;;;;;;21.63;50.77;100887.11;2351743;75;51416;-76
2023/05/16 14:48:03;;;;;;;;;;;;;;;21.64;50.71;100878.84;2351039;74;50742;-76
2023/05/16 14:51:05;;;;;;;;;;;;;;;21.67;50.56;100889.22;2351403;75;50229;-76
2023/05/16 14:54:07;;;;;;;;;;;;;;;21.69;50.52;100875.57;2329356;74;52399;-76
2023/05/16 14:57:08;;;;;;;;;;;;;;;21.71;50.53;100878.90;2348778;75;50241;-76
2023/05/16 15:00:11;;;;;;;;;;;;;;;21.73;50.45;100884.89;2353208;74;50323;-75
2023/05/16 15:03:12;;;;;;;;;;;;;;;21.70;50.58;100870.48;2351327;75;51677;-76
2023/05/16 15:06:14;;;;;;;;;;;;;;;21.69;50.68;100874.22;2351018;75;51425;-76
2023/05/16 15:09:16;;;;;;;;;;;;;;;21.69;50.58;100882.30;2351242;75;51522;-76
2023/05/16 15:12:18;;;;;;;;;;;;;;;21.68;50.63;100882.82;2353036;75;52550;-77
2023/05/16 15:15:19;;;;;;;;;;;;;;;21.66;50.56;100870.58;2351321;75;51409;-76
2023/05/16 15:18:21;;;;;;;;;;;;;;;21.67;50.39;100866.84;2326035;75;52205;-76
2023/05/16 15:21:22;;;;;;;;;;;;;;;21.71;50.54;100876.20;2288586;75;51533;-76
2023/05/16 15:24:24;;;;;;;;;;;;;;;21.69;50.32;100872.88;2309589;75;51425;-77
2023/05/16 15:27:26;;;;;;;;;;;;;;;21.69;50.50;100880.43;2307558;77;51499;-76
2023/05/16 15:30:27;;;;;;;;;;;;;;;21.68;50.50;100880.13;2286958;77;52383;-76
2023/05/16 15:33:29;;;;;;;;;;;;;;;21.69;50.41;100885.81;2320981;75;51499;-79